UKOH/KHE METAR and TAF weather

Enter ICAO airport designator
Station Type Date Time Source
UKOH METAR 2019/02/17 16:30 UTC NOAA

UKOH 171630Z 26004MPS CAVOK 05/03 Q1017 R21/CLRD65 NOSIG


Station Type Date Time Source
UKOH Decoded METAR 2019/02/17 16:30 UTC NOAA

Station name not available
Feb 17, 2019 - 11:30 AM EST / 2019.02.17 1630 UTC
Wind: from the W (260 degrees) at 9 MPH (8 KT):0
Visibility: greater than 7 mile(s):0
Temperature: 41 F (5 C)
Dew Point: 37 F (3 C)
Relative Humidity: 86%
Pressure (altimeter): 30.03 in. Hg (1017 hPa)
ob: UKOH 171630Z 26004MPS CAVOK 05/03 Q1017 R21/CLRD65 NOSIG
cycle: 16

Station Type Date Time Source
UKOH TAF UTC NOAA

Error!


Example: see airport list